createdAt,value
2018-02-20T00:00:45.863Z,50.40
2018-02-20T00:03:14.140Z,50.30
2018-02-20T00:05:42.275Z,50.40
2018-02-20T00:08:11.174Z,50.80
2018-02-20T00:10:40.194Z,50.70
2018-02-20T00:13:08.362Z,50.70
2018-02-20T00:15:36.505Z,51.10
2018-02-20T00:18:05.446Z,51.50
2018-02-20T00:20:33.600Z,51.40
2018-02-20T00:23:04.539Z,51.80
2018-02-20T00:25:32.670Z,52.00
2018-02-20T00:28:01.598Z,52.30
2018-02-20T00:30:29.729Z,52.30
2018-02-20T00:32:57.901Z,52.50
2018-02-20T00:35:26.035Z,53.00
2018-02-20T00:37:54.198Z,53.20
2018-02-20T00:40:22.337Z,53.50
2018-02-20T00:42:51.270Z,54.20
2018-02-20T00:45:19.425Z,54.20
2018-02-20T00:47:47.602Z,54.60
2018-02-20T00:50:15.776Z,54.90
2018-02-20T00:52:43.911Z,55.60
2018-02-20T00:55:13.458Z,56.30
2018-02-20T00:57:41.626Z,56.30
2018-02-20T01:00:09.795Z,56.40
2018-02-20T01:02:37.949Z,56.60
2018-02-20T01:05:06.087Z,56.90
2018-02-20T01:07:34.241Z,57.20
2018-02-20T01:10:02.369Z,57.80
2018-02-20T01:12:30.578Z,58.10
2018-02-20T01:14:58.721Z,58.90
2018-02-20T01:17:26.883Z,58.90
2018-02-20T01:19:55.013Z,58.90
2018-02-20T01:22:23.181Z,58.90
2018-02-20T01:24:51.317Z,58.90
2018-02-20T01:27:19.451Z,58.90
2018-02-20T01:29:48.854Z,58.90
2018-02-20T01:32:17.750Z,58.90
2018-02-20T01:34:46.671Z,58.90
2018-02-20T01:37:14.848Z,58.90
2018-02-20T01:39:42.985Z,58.90
2018-02-20T01:42:11.889Z,58.90
2018-02-20T01:44:40.042Z,59.00
2018-02-20T01:47:08.177Z,59.00
2018-02-20T01:49:36.351Z,59.00
2018-02-20T01:52:04.486Z,59.00
2018-02-20T01:54:32.645Z,59.00
2018-02-20T01:57:01.549Z,59.00
2018-02-20T01:59:29.682Z,59.00
2018-02-20T02:01:57.838Z,59.00
2018-02-20T02:04:25.974Z,58.90
2018-02-20T02:06:54.525Z,59.30
2018-02-20T02:09:23.429Z,59.00
2018-02-20T02:11:51.602Z,59.00
2018-02-20T02:14:19.803Z,59.10
2018-02-20T02:16:47.953Z,59.10
2018-02-20T02:19:16.153Z,59.10
2018-02-20T02:21:44.289Z,59.10
2018-02-20T02:24:13.223Z,59.20
2018-02-20T02:26:42.105Z,59.20
2018-02-20T02:29:10.244Z,59.10
2018-02-20T02:31:38.438Z,59.10
2018-02-20T02:34:06.574Z,59.10
2018-02-20T02:36:36.087Z,59.20
2018-02-20T02:39:04.271Z,59.20
2018-02-20T02:41:32.439Z,59.10
2018-02-20T02:44:00.581Z,59.10
2018-02-20T02:46:29.497Z,60.30
2018-02-20T02:48:58.445Z,59.10
2018-02-20T02:51:26.687Z,59.10
2018-02-20T02:53:54.874Z,59.40
2018-02-20T02:56:23.031Z,59.60
2018-02-20T02:58:51.206Z,59.40
2018-02-20T03:01:19.602Z,59.60
2018-02-20T03:03:48.039Z,59.50
2018-02-20T03:06:16.240Z,59.30
2018-02-20T03:08:44.420Z,59.40
2018-02-20T03:11:12.568Z,59.60
2018-02-20T03:13:40.757Z,59.60
2018-02-20T03:16:08.914Z,60.00
2018-02-20T03:18:37.045Z,60.20
2018-02-20T03:21:05.281Z,60.00
2018-02-20T03:23:33.434Z,60.10
2018-02-20T03:26:01.571Z,60.10
2018-02-20T03:28:29.793Z,60.40
2018-02-20T03:30:57.960Z,61.80
2018-02-20T03:33:26.129Z,60.60
2018-02-20T03:35:54.310Z,60.50
2018-02-20T03:38:22.469Z,60.60
2018-02-20T03:40:50.602Z,61.00
2018-02-20T03:43:19.547Z,61.70
2018-02-20T03:45:47.678Z,61.70
2018-02-20T03:48:16.606Z,62.30
2018-02-20T03:50:44.738Z,62.20
2018-02-20T03:53:13.658Z,62.50
2018-02-20T03:55:41.850Z,62.40
2018-02-20T03:58:10.024Z,62.80
2018-02-20T04:00:38.162Z,63.00
2018-02-20T04:03:07.182Z,63.70
2018-02-20T04:05:35.318Z,63.70
2018-02-20T04:08:04.226Z,64.20
2018-02-20T04:10:32.380Z,64.10
2018-02-20T04:13:01.414Z,64.80
2018-02-20T04:15:29.589Z,64.70
2018-02-20T04:17:57.746Z,65.00
2018-02-20T04:20:25.919Z,65.40
2018-02-20T04:22:54.078Z,65.50
2018-02-20T04:25:22.627Z,65.60
2018-02-20T04:27:50.781Z,65.90
2018-02-20T04:30:18.910Z,66.00
2018-02-20T04:32:47.073Z,66.10
2018-02-20T04:35:16.003Z,65.00
2018-02-20T04:37:44.166Z,66.60
2018-02-20T04:40:12.323Z,66.00
2018-02-20T04:42:40.504Z,66.60
2018-02-20T04:45:08.649Z,66.70
2018-02-20T04:47:37.590Z,66.80
2018-02-20T04:50:06.343Z,66.90
2018-02-20T04:52:34.482Z,66.70
2018-02-20T04:55:02.638Z,66.50
2018-02-20T04:57:30.779Z,66.80
2018-02-20T04:59:58.987Z,66.30
2018-02-20T05:02:27.231Z,66.60
2018-02-20T05:04:55.366Z,66.40
2018-02-20T05:07:24.294Z,66.20
2018-02-20T05:09:52.426Z,66.40
2018-02-20T05:12:20.913Z,66.20
2018-02-20T05:14:49.074Z,66.30
2018-02-20T05:17:17.989Z,66.30
2018-02-20T05:19:46.187Z,66.20
2018-02-20T05:22:14.326Z,65.80
2018-02-20T05:24:42.461Z,66.40
2018-02-20T05:27:10.617Z,66.20
2018-02-20T05:29:38.755Z,66.30
2018-02-20T05:32:06.911Z,66.30
2018-02-20T05:34:35.073Z,65.70
2018-02-20T05:37:04.620Z,66.40
2018-02-20T05:39:33.614Z,66.50
2018-02-20T05:42:01.764Z,66.50
2018-02-20T05:44:29.930Z,66.70
2018-02-20T05:46:58.075Z,66.80
2018-02-20T05:49:26.978Z,68.10
2018-02-20T05:51:55.906Z,67.00
2018-02-20T05:54:24.045Z,67.30
2018-02-20T05:56:52.969Z,67.10
2018-02-20T05:59:21.106Z,66.90
2018-02-20T06:01:50.052Z,67.60
2018-02-20T06:04:18.202Z,67.30
2018-02-20T06:06:46.354Z,67.40
2018-02-20T06:09:14.525Z,67.40
2018-02-20T06:11:42.659Z,67.50
2018-02-20T06:14:10.794Z,67.50
2018-02-20T06:16:38.977Z,66.70
2018-02-20T06:19:07.110Z,67.60
2018-02-20T06:21:35.274Z,67.70
2018-02-20T06:24:04.174Z,67.50
2018-02-20T06:26:32.318Z,67.50
2018-02-20T06:29:00.590Z,67.30
2018-02-20T06:31:28.821Z,67.70
2018-02-20T06:33:56.980Z,67.70
2018-02-20T06:36:25.117Z,67.60
2018-02-20T06:38:53.272Z,67.70
2018-02-20T06:41:21.468Z,67.50
2018-02-20T06:43:50.388Z,67.70
2018-02-20T06:46:18.554Z,68.00
2018-02-20T06:48:46.694Z,67.70
2018-02-20T06:51:14.854Z,67.20
2018-02-20T06:53:42.987Z,67.40
2018-02-20T06:56:11.154Z,67.30
2018-02-20T06:58:39.622Z,67.10
2018-02-20T07:01:07.814Z,66.60
2018-02-20T07:03:36.045Z,66.50
2018-02-20T07:06:04.990Z,65.80
2018-02-20T07:08:33.180Z,65.30
2018-02-20T07:11:01.329Z,65.00
2018-02-20T07:13:29.484Z,65.10
2018-02-20T07:15:57.614Z,64.40
2018-02-20T07:18:25.781Z,64.10
2018-02-20T07:20:53.917Z,63.60
2018-02-20T07:23:22.098Z,63.60
2018-02-20T07:25:50.374Z,62.90
2018-02-20T07:28:18.505Z,63.00
2018-02-20T07:30:47.433Z,62.20
2018-02-20T07:33:15.578Z,62.20
2018-02-20T07:35:43.744Z,62.80
2018-02-20T07:38:12.705Z,63.20
2018-02-20T07:40:41.631Z,61.60
2018-02-20T07:43:09.798Z,61.60
2018-02-20T07:45:38.706Z,59.90
2018-02-20T07:48:07.104Z,60.00
2018-02-20T07:50:35.371Z,59.80
2018-02-20T07:53:03.531Z,58.80
2018-02-20T07:55:31.705Z,58.90
2018-02-20T07:57:59.895Z,58.30
2018-02-20T08:00:28.070Z,57.90
2018-02-20T08:02:56.413Z,57.40
2018-02-20T08:05:24.607Z,57.20
2018-02-20T08:07:52.794Z,56.60
2018-02-20T08:10:20.925Z,56.30
2018-02-20T08:12:50.189Z,55.90
2018-02-20T08:15:18.322Z,55.90
2018-02-20T08:17:46.454Z,55.40
2018-02-20T08:20:15.373Z,55.20
2018-02-20T08:22:43.515Z,54.00
2018-02-20T08:25:11.977Z,54.20
2018-02-20T08:27:40.155Z,53.20
2018-02-20T08:30:08.290Z,53.30
2018-02-20T08:32:36.455Z,52.60
2018-02-20T08:35:04.591Z,52.70
2018-02-20T08:37:33.510Z,51.90
2018-02-20T08:40:01.699Z,52.00
2018-02-20T08:42:29.907Z,51.80
2018-02-20T08:44:58.019Z,51.80
2018-02-20T08:47:26.229Z,51.50
2018-02-20T08:49:54.678Z,50.00
2018-02-20T08:52:22.866Z,49.30
2018-02-20T08:54:51.042Z,49.20
2018-02-20T08:57:19.202Z,48.90
2018-02-20T08:59:47.511Z,50.00
2018-02-20T09:02:15.711Z,49.80
2018-02-20T09:04:43.857Z,48.70
2018-02-20T09:07:12.046Z,48.50
2018-02-20T09:09:40.174Z,48.20
2018-02-20T09:12:08.344Z,47.00
2018-02-20T09:14:36.484Z,46.40
2018-02-20T09:17:05.395Z,45.30
2018-02-20T09:19:33.562Z,45.40
2018-02-20T09:22:01.703Z,44.60
2018-02-20T09:24:29.964Z,43.50
2018-02-20T09:26:58.150Z,42.70
2018-02-20T09:29:26.305Z,41.70
2018-02-20T09:31:54.465Z,41.40
2018-02-20T09:34:22.629Z,40.30
2018-02-20T09:36:51.170Z,40.10
2018-02-20T09:39:20.086Z,38.30
2018-02-20T09:41:48.257Z,38.30
2018-02-20T09:44:16.402Z,37.80
2018-02-20T09:46:45.417Z,36.80
2018-02-20T09:49:13.586Z,36.80
2018-02-20T09:51:41.754Z,36.50
2018-02-20T09:54:09.974Z,35.80
2018-02-20T09:56:38.126Z,35.10
2018-02-20T09:59:06.271Z,34.20
2018-02-20T10:01:34.438Z,33.90
2018-02-20T10:04:02.584Z,33.10
2018-02-20T10:06:30.770Z,32.20
2018-02-20T10:08:59.315Z,32.20
2018-02-20T10:11:28.242Z,30.60
2018-02-20T10:13:57.182Z,29.30
2018-02-20T10:16:26.154Z,29.20
2018-02-20T10:18:54.302Z,28.80
2018-02-20T10:21:23.231Z,29.30
2018-02-20T10:23:51.372Z,29.20
2018-02-20T10:26:20.277Z,28.60
2018-02-20T10:28:48.458Z,28.60
2018-02-20T10:31:16.593Z,28.80
2018-02-20T10:33:44.733Z,26.70
2018-02-20T10:36:12.995Z,25.60
2018-02-20T10:38:41.142Z,25.60
2018-02-20T10:41:09.295Z,25.00
2018-02-20T10:43:38.246Z,23.80
2018-02-20T10:46:06.398Z,23.70
2018-02-20T10:48:34.547Z,23.00
2018-02-20T10:51:02.722Z,23.40
2018-02-20T10:53:30.894Z,22.50
2018-02-20T10:55:59.038Z,21.80
2018-02-20T10:58:27.424Z,21.10
2018-02-20T11:00:56.341Z,20.40
2018-02-20T11:03:24.494Z,20.30
2018-02-20T11:05:53.439Z,19.60
2018-02-20T11:08:21.594Z,19.40
2018-02-20T11:10:49.742Z,19.40
2018-02-20T11:13:17.940Z,19.40
2018-02-20T11:15:46.111Z,19.00
2018-02-20T11:18:14.280Z,19.10
2018-02-20T11:20:42.455Z,19.20
2018-02-20T11:23:11.162Z,18.80
2018-02-20T11:25:39.382Z,18.60
2018-02-20T11:28:07.594Z,18.10
2018-02-20T11:30:35.774Z,17.80
2018-02-20T11:33:03.914Z,17.50
2018-02-20T11:35:32.733Z,17.10
2018-02-20T11:38:00.923Z,17.50
2018-02-20T11:40:29.099Z,16.90
2018-02-20T11:42:57.328Z,16.20
2018-02-20T11:45:25.474Z,16.80
2018-02-20T11:47:54.431Z,16.10
2018-02-20T11:50:23.111Z,16.10
2018-02-20T11:52:51.888Z,15.40
2018-02-20T11:55:20.063Z,15.00
2018-02-20T11:57:48.323Z,14.70
2018-02-20T12:00:16.845Z,14.20
2018-02-20T12:02:44.989Z,14.10
2018-02-20T12:05:13.150Z,14.00
2018-02-20T12:07:41.293Z,14.10
2018-02-20T12:10:10.290Z,13.00
2018-02-20T12:12:38.462Z,13.80
2018-02-20T12:15:06.605Z,13.10
2018-02-20T12:17:34.776Z,12.50
2018-02-20T12:20:03.288Z,12.10
2018-02-20T12:22:32.315Z,11.20
2018-02-20T12:25:00.623Z,11.20
2018-02-20T12:27:28.794Z,10.10
2018-02-20T12:29:57.034Z,10.40
2018-02-20T12:32:25.414Z,10.40
2018-02-20T12:34:54.176Z,9.80
2018-02-20T12:37:22.370Z,9.60
2018-02-20T12:39:50.513Z,9.20
2018-02-20T12:42:19.413Z,8.70
2018-02-20T12:44:47.606Z,8.70
2018-02-20T12:47:15.747Z,8.90
2018-02-20T12:49:44.649Z,7.90
2018-02-20T12:52:12.834Z,7.90
2018-02-20T12:54:41.010Z,7.10
2018-02-20T12:57:09.199Z,7.20
2018-02-20T12:59:37.367Z,7.20
2018-02-20T13:02:05.526Z,7.00
2018-02-20T13:04:33.727Z,7.60
2018-02-20T13:07:02.474Z,7.20
2018-02-20T13:09:30.645Z,6.30
2018-02-20T13:11:59.487Z,6.00
2018-02-20T13:14:27.640Z,5.50
2018-02-20T13:16:55.819Z,5.60
2018-02-20T13:19:23.959Z,5.90
2018-02-20T13:21:52.101Z,6.30
2018-02-20T13:24:21.033Z,5.20
2018-02-20T13:26:49.175Z,5.10
2018-02-20T13:29:18.098Z,4.90
2018-02-20T13:31:46.263Z,4.90
2018-02-20T13:34:14.431Z,4.80
2018-02-20T13:36:42.578Z,4.30
2018-02-20T13:39:11.530Z,5.00
2018-02-20T13:41:40.098Z,5.00
2018-02-20T13:44:08.271Z,5.00
2018-02-20T13:46:39.261Z,5.20
2018-02-20T13:49:08.194Z,4.90
2018-02-20T13:51:36.371Z,4.80
2018-02-20T13:54:04.553Z,5.20
2018-02-20T13:56:32.723Z,5.40
2018-02-20T13:59:00.883Z,5.10
2018-02-20T14:01:29.048Z,5.00
2018-02-20T14:03:57.191Z,5.30
2018-02-20T14:06:26.090Z,5.40
2018-02-20T14:08:54.295Z,5.40
2018-02-20T14:11:22.436Z,5.10
2018-02-20T14:13:50.581Z,4.90
2018-02-20T14:16:18.747Z,5.00
2018-02-20T14:18:47.030Z,4.90
2018-02-20T14:21:16.038Z,5.20
2018-02-20T14:23:44.966Z,5.00
2018-02-20T14:26:13.138Z,5.00
2018-02-20T14:28:41.286Z,4.80
2018-02-20T14:31:09.435Z,5.30
2018-02-20T14:33:38.375Z,4.30
2018-02-20T14:36:06.526Z,4.30
2018-02-20T14:38:34.718Z,4.10
2018-02-20T14:41:02.905Z,4.50
2018-02-20T14:43:31.078Z,4.80
2018-02-20T14:45:59.251Z,5.10
2018-02-20T14:48:27.390Z,5.50
2018-02-20T14:50:55.542Z,6.00
2018-02-20T14:53:24.482Z,5.50
2018-02-20T14:55:52.659Z,5.50
2018-02-20T14:58:20.800Z,5.20
2018-02-20T15:00:48.943Z,5.30
2018-02-20T15:03:17.111Z,5.40
2018-02-20T15:05:45.338Z,5.30
2018-02-20T15:08:13.618Z,5.60
2018-02-20T15:10:41.818Z,6.10
2018-02-20T15:13:10.883Z,6.30
2018-02-20T15:15:39.051Z,6.20
2018-02-20T15:18:07.322Z,6.00
2018-02-20T15:20:35.506Z,5.90
2018-02-20T15:23:04.102Z,5.90
2018-02-20T15:25:33.713Z,6.40
2018-02-20T15:28:01.866Z,6.70
2018-02-20T15:30:30.031Z,7.00
2018-02-20T15:32:58.176Z,7.80
2018-02-20T15:35:27.115Z,7.50
2018-02-20T15:37:55.253Z,7.40
2018-02-20T15:40:23.391Z,7.50
2018-02-20T15:42:51.573Z,7.80
2018-02-20T15:45:20.506Z,7.80
2018-02-20T15:47:48.678Z,7.80
2018-02-20T15:50:16.826Z,7.90
2018-02-20T15:52:44.990Z,8.40
2018-02-20T15:55:13.931Z,9.40
2018-02-20T15:57:42.193Z,9.40
2018-02-20T16:00:10.359Z,10.20
2018-02-20T16:02:38.544Z,10.40
2018-02-20T16:05:06.719Z,11.00
2018-02-20T16:07:34.871Z,11.90
2018-02-20T16:10:03.008Z,13.00
2018-02-20T16:12:31.974Z,15.20
2018-02-20T16:15:00.189Z,15.20
2018-02-20T16:17:29.094Z,17.70
2018-02-20T16:19:57.266Z,17.70
2018-02-20T16:22:25.442Z,18.70
2018-02-20T16:24:53.631Z,20.10
2018-02-20T16:27:21.810Z,20.00
2018-02-20T16:29:50.910Z,21.30
2018-02-20T16:32:19.079Z,22.30
2018-02-20T16:34:47.225Z,23.40
2018-02-20T16:37:15.386Z,24.10
2018-02-20T16:39:43.552Z,25.30
2018-02-20T16:42:11.863Z,25.80
2018-02-20T16:44:39.998Z,26.10
2018-02-20T16:47:08.940Z,27.60
2018-02-20T16:49:37.116Z,27.50
2018-02-20T16:52:05.276Z,28.10
2018-02-20T16:54:33.418Z,28.40
2018-02-20T16:57:01.562Z,28.80
2018-02-20T16:59:29.787Z,29.10
2018-02-20T17:01:57.930Z,29.30
2018-02-20T17:04:26.848Z,29.90
2018-02-20T17:06:55.003Z,29.90
2018-02-20T17:09:23.290Z,30.10
2018-02-20T17:11:51.426Z,30.40
2018-02-20T17:14:20.362Z,31.10
2018-02-20T17:16:48.493Z,31.10
2018-02-20T17:19:17.440Z,31.40
2018-02-20T17:21:46.374Z,31.40
2018-02-20T17:24:15.314Z,32.10
2018-02-20T17:26:43.561Z,32.20
2018-02-20T17:29:11.694Z,32.30
2018-02-20T17:31:39.857Z,32.50
2018-02-20T17:34:07.991Z,32.80
2018-02-20T17:36:36.174Z,33.00
2018-02-20T17:39:04.367Z,33.40
2018-02-20T17:41:32.521Z,33.50
2018-02-20T17:44:00.666Z,33.70
2018-02-20T17:46:28.829Z,33.70
2018-02-20T17:48:57.770Z,34.40
2018-02-20T17:51:25.916Z,34.40
2018-02-20T17:53:54.050Z,35.00
2018-02-20T17:56:22.986Z,35.00
2018-02-20T17:58:51.142Z,35.00
2018-02-20T18:01:19.284Z,34.90
2018-02-20T18:03:47.530Z,34.90
2018-02-20T18:06:15.669Z,35.30
2018-02-20T18:08:43.829Z,35.20
2018-02-20T18:11:11.961Z,35.20
2018-02-20T18:13:40.191Z,35.40
2018-02-20T18:16:08.351Z,35.90
2018-02-20T18:18:36.514Z,36.00
2018-02-20T18:21:05.410Z,36.60
2018-02-20T18:23:33.547Z,36.60
2018-02-20T18:26:01.777Z,36.70
2018-02-20T18:28:29.914Z,36.90
2018-02-20T18:30:59.003Z,38.00
2018-02-20T18:33:27.914Z,38.40
2018-02-20T18:35:56.122Z,38.40
2018-02-20T18:38:25.094Z,38.80
2018-02-20T18:40:53.231Z,39.20
2018-02-20T18:43:22.138Z,40.00
2018-02-20T18:45:50.305Z,39.90
2018-02-20T18:48:19.291Z,41.10
2018-02-20T18:50:49.248Z,41.10
2018-02-20T18:53:17.410Z,41.20
2018-02-20T18:55:46.146Z,41.70
2018-02-20T18:58:15.095Z,42.60
2018-02-20T19:00:43.522Z,42.50
2018-02-20T19:03:12.450Z,42.50
2018-02-20T19:05:41.963Z,42.50
2018-02-20T19:08:10.122Z,42.30
2018-02-20T19:10:38.261Z,42.20
2018-02-20T19:13:06.513Z,42.30
2018-02-20T19:15:34.652Z,42.40
2018-02-20T19:18:02.796Z,42.20
2018-02-20T19:20:31.718Z,42.80
2018-02-20T19:22:59.893Z,42.80
2018-02-20T19:25:28.060Z,43.00
2018-02-20T19:27:56.210Z,43.40
2018-02-20T19:30:25.157Z,44.10
2018-02-20T19:32:53.327Z,44.00
2018-02-20T19:35:21.469Z,44.10
2018-02-20T19:37:51.197Z,44.30
2018-02-20T19:40:19.339Z,44.30
2018-02-20T19:42:47.555Z,44.40
2018-02-20T19:45:15.723Z,45.10
2018-02-20T19:47:43.873Z,45.10
2018-02-20T19:50:12.035Z,45.00
2018-02-20T19:52:40.248Z,45.20
2018-02-20T19:55:08.750Z,45.50
2018-02-20T19:57:36.971Z,45.80
2018-02-20T20:00:05.158Z,47.10
2018-02-20T20:02:33.303Z,45.80
2018-02-20T20:05:01.896Z,45.80
2018-02-20T20:07:30.071Z,45.90
2018-02-20T20:09:58.256Z,46.30
2018-02-20T20:12:26.414Z,46.70
2018-02-20T20:14:54.949Z,46.90
2018-02-20T20:17:23.190Z,46.90
2018-02-20T20:19:51.903Z,47.00
2018-02-20T20:22:20.087Z,47.40
2018-02-20T20:24:51.438Z,48.70
2018-02-20T20:27:21.305Z,48.10
2018-02-20T20:29:50.083Z,48.00
2018-02-20T20:32:18.729Z,48.00
2018-02-20T20:34:47.797Z,48.70
2018-02-20T20:37:15.935Z,48.60
2018-02-20T20:39:44.208Z,48.90
2018-02-20T20:42:12.358Z,48.70
2018-02-20T20:44:40.497Z,49.10
2018-02-20T20:47:08.734Z,49.40
2018-02-20T20:49:36.906Z,49.70
2018-02-20T20:52:05.362Z,49.70
2018-02-20T20:54:34.505Z,50.30
2018-02-20T20:57:02.683Z,50.70
2018-02-20T20:59:30.850Z,50.80
2018-02-20T21:01:59.098Z,50.90
2018-02-20T21:04:27.234Z,51.00
2018-02-20T21:06:56.156Z,51.20
2018-02-20T21:09:24.318Z,51.10
2018-02-20T21:11:52.454Z,51.40
2018-02-20T21:14:20.680Z,51.60
2018-02-20T21:16:48.845Z,51.60
2018-02-20T21:19:17.002Z,51.60
2018-02-20T21:21:45.173Z,51.80
2018-02-20T21:24:13.535Z,51.70
2018-02-20T21:26:42.462Z,51.70
2018-02-20T21:29:10.634Z,51.70
2018-02-20T21:31:38.798Z,51.50
2018-02-20T21:34:06.939Z,51.50
2018-02-20T21:36:35.876Z,51.40
2018-02-20T21:39:04.024Z,51.40
2018-02-20T21:41:32.221Z,51.30
2018-02-20T21:44:00.353Z,51.50
2018-02-20T21:46:29.274Z,51.80
2018-02-20T21:48:57.434Z,51.80
2018-02-20T21:51:25.566Z,51.80
2018-02-20T21:53:53.744Z,51.90
2018-02-20T21:56:21.914Z,51.90
2018-02-20T21:58:50.866Z,51.90
2018-02-20T22:01:19.026Z,52.30
2018-02-20T22:03:47.190Z,52.10
2018-02-20T22:06:15.391Z,52.30
2018-02-20T22:08:43.505Z,52.50
2018-02-20T22:11:12.410Z,52.60
2018-02-20T22:13:41.329Z,52.60
2018-02-20T22:16:09.503Z,52.50
2018-02-20T22:18:37.666Z,52.60
2018-02-20T22:21:05.851Z,52.40
2018-02-20T22:23:34.029Z,52.30
2018-02-20T22:26:02.192Z,52.10
2018-02-20T22:28:30.820Z,52.10
2018-02-20T22:30:58.994Z,52.10
2018-02-20T22:33:27.136Z,52.00
2018-02-20T22:35:55.265Z,52.10
2018-02-20T22:38:24.215Z,52.30
2018-02-20T22:40:52.355Z,52.20
2018-02-20T22:43:20.494Z,52.20
2018-02-20T22:45:49.417Z,52.50
2018-02-20T22:48:17.565Z,52.50
2018-02-20T22:50:46.514Z,52.80
2018-02-20T22:53:14.645Z,52.90
2018-02-20T22:55:42.777Z,53.00
2018-02-20T22:58:10.955Z,53.00
2018-02-20T23:00:39.096Z,53.00
2018-02-20T23:03:07.253Z,53.40
2018-02-20T23:05:35.410Z,53.30
2018-02-20T23:08:03.566Z,53.10
2018-02-20T23:10:31.700Z,53.10
2018-02-20T23:12:59.858Z,52.70
2018-02-20T23:15:28.031Z,52.90
2018-02-20T23:17:56.168Z,52.90
2018-02-20T23:20:24.338Z,52.80
2018-02-20T23:22:52.482Z,53.10
2018-02-20T23:25:21.386Z,53.20
2018-02-20T23:27:51.133Z,53.20
2018-02-20T23:30:19.286Z,53.20
2018-02-20T23:32:47.426Z,53.40
2018-02-20T23:35:16.352Z,53.70
2018-02-20T23:37:44.518Z,53.70
2018-02-20T23:40:12.650Z,53.50
2018-02-20T23:42:41.802Z,53.60
2018-02-20T23:45:10.059Z,54.00
2018-02-20T23:47:38.202Z,53.90
2018-02-20T23:50:07.109Z,53.80
2018-02-20T23:52:36.131Z,54.10
2018-02-20T23:55:04.262Z,54.20
2018-02-20T23:57:32.422Z,54.20
